createdAt,value
2022-11-12T00:01:22.603Z,4.20
2022-11-12T00:03:51.023Z,3.73
2022-11-12T00:06:19.418Z,4.67
2022-11-12T00:08:47.688Z,5.70
2022-11-12T00:11:17.521Z,3.77
2022-11-12T00:13:45.916Z,4.97
2022-11-12T00:16:14.272Z,4.60
2022-11-12T00:18:42.623Z,5.20
2022-11-12T00:21:10.980Z,5.30
2022-11-12T00:23:39.400Z,5.50
2022-11-12T00:26:07.652Z,4.93
2022-11-12T00:28:38.476Z,5.00
2022-11-12T00:31:12.622Z,4.87
2022-11-12T00:33:42.876Z,4.43
2022-11-12T00:36:12.375Z,7.73
2022-11-12T00:38:40.904Z,5.53
2022-11-12T00:41:09.356Z,9.07
2022-11-12T00:43:39.096Z,5.57
2022-11-12T00:46:07.401Z,3.53
2022-11-12T00:48:35.659Z,5.27
2022-11-12T00:51:05.315Z,3.77
2022-11-12T00:53:34.193Z,4.77
2022-11-12T00:56:03.658Z,5.50
2022-11-12T00:58:32.531Z,4.80
2022-11-12T01:01:07.364Z,4.33
2022-11-12T01:03:35.720Z,4.40
2022-11-12T01:06:05.312Z,5.17
2022-11-12T01:08:33.765Z,4.63
2022-11-12T01:11:11.026Z,4.53
2022-11-12T01:13:43.992Z,6.07
2022-11-12T01:16:16.359Z,4.37
2022-11-12T01:18:45.454Z,5.83
2022-11-12T01:21:14.540Z,3.33
2022-11-12T01:23:43.554Z,5.53
2022-11-12T01:26:14.884Z,3.23
2022-11-12T01:28:44.442Z,3.37
2022-11-12T01:31:16.930Z,4.40
2022-11-12T01:33:47.208Z,3.70
2022-11-12T01:36:16.999Z,4.07
2022-11-12T01:38:46.465Z,3.57
2022-11-12T01:41:17.048Z,3.33
2022-11-12T01:43:45.384Z,2.43
2022-11-12T01:46:21.484Z,3.50
2022-11-12T01:48:54.248Z,3.20
2022-11-12T01:51:24.814Z,3.27
2022-11-12T01:53:57.471Z,1.90
2022-11-12T01:56:28.657Z,3.03
2022-11-12T01:59:01.189Z,6.03
2022-11-12T02:01:31.579Z,3.10
2022-11-12T02:04:00.120Z,2.83
2022-11-12T02:06:28.474Z,4.97
2022-11-12T02:08:57.785Z,2.30
2022-11-12T02:11:26.172Z,3.77
2022-11-12T02:14:01.507Z,2.43
2022-11-12T02:16:34.804Z,4.40
2022-11-12T02:19:03.901Z,2.90
2022-11-12T02:21:34.705Z,3.20
2022-11-12T02:24:05.967Z,3.83
2022-11-12T02:26:38.207Z,4.13
2022-11-12T02:29:06.434Z,5.27
2022-11-12T02:31:35.069Z,3.33
2022-11-12T02:34:03.887Z,2.90
2022-11-12T02:36:33.650Z,2.77
2022-11-12T02:39:01.920Z,2.80
2022-11-12T02:41:30.310Z,3.60
2022-11-12T02:43:58.632Z,2.77
2022-11-12T02:46:26.911Z,4.10
2022-11-12T02:48:55.213Z,3.57
2022-11-12T02:51:23.490Z,3.40
2022-11-12T02:53:53.169Z,4.23
2022-11-12T02:56:21.498Z,3.87
2022-11-12T02:58:49.762Z,2.60
2022-11-12T03:01:18.136Z,2.90
2022-11-12T03:03:46.527Z,3.70
2022-11-12T03:06:14.801Z,2.60
2022-11-12T03:08:43.177Z,4.77
2022-11-12T03:11:14.888Z,3.20
2022-11-12T03:13:44.007Z,3.67
2022-11-12T03:16:12.328Z,3.10
2022-11-12T03:18:40.561Z,4.43
2022-11-12T03:21:08.955Z,2.93
2022-11-12T03:23:37.203Z,2.53
2022-11-12T03:26:06.383Z,5.97
2022-11-12T03:28:36.102Z,5.37
2022-11-12T03:31:04.384Z,3.63
2022-11-12T03:33:32.764Z,5.90
2022-11-12T03:36:01.015Z,3.33
2022-11-12T03:38:29.532Z,2.77
2022-11-12T03:40:58.013Z,5.07
2022-11-12T03:43:26.287Z,5.20
2022-11-12T03:45:56.010Z,7.70
2022-11-12T03:48:24.562Z,3.87
2022-11-12T03:50:53.175Z,4.33
2022-11-12T03:53:21.470Z,3.27
2022-11-12T03:55:49.738Z,3.27
2022-11-12T03:58:18.062Z,5.20
2022-11-12T04:00:46.487Z,3.97
2022-11-12T04:03:16.222Z,6.47
2022-11-12T04:06:02.053Z,3.13
2022-11-12T04:08:39.140Z,5.57
2022-11-12T04:11:10.477Z,2.77
2022-11-12T04:13:39.703Z,4.03
2022-11-12T04:16:28.162Z,4.70
2022-11-12T04:19:16.853Z,3.37
2022-11-12T04:21:52.327Z,3.80
2022-11-12T04:24:39.547Z,4.23
2022-11-12T04:27:09.100Z,3.27
2022-11-12T04:29:54.865Z,2.83
2022-11-12T04:32:23.323Z,5.13
2022-11-12T04:34:54.119Z,2.87
2022-11-12T04:37:23.719Z,3.70
2022-11-12T04:39:52.166Z,3.23
2022-11-12T04:42:38.491Z,4.17
2022-11-12T04:45:09.652Z,4.70
2022-11-12T04:47:39.946Z,4.63
2022-11-12T04:50:15.992Z,2.90
2022-11-12T04:52:44.361Z,3.53
2022-11-12T04:55:12.638Z,4.73
2022-11-12T04:57:41.465Z,3.30
2022-11-12T05:00:12.231Z,4.33
2022-11-12T05:02:40.482Z,2.50
2022-11-12T05:05:11.163Z,3.87
2022-11-12T05:07:39.360Z,3.03
2022-11-12T05:10:08.697Z,3.63
2022-11-12T05:12:37.451Z,3.13
2022-11-12T05:15:06.283Z,3.60
2022-11-12T05:17:34.560Z,3.90
2022-11-12T05:20:02.946Z,4.17
2022-11-12T05:22:43.239Z,2.80
2022-11-12T05:25:14.164Z,3.73
2022-11-12T05:27:42.630Z,2.73
2022-11-12T05:30:12.096Z,2.63
2022-11-12T05:32:40.436Z,5.87
2022-11-12T05:35:09.230Z,4.00
2022-11-12T05:37:38.939Z,3.33
2022-11-12T05:40:08.545Z,4.87
2022-11-12T05:42:36.902Z,3.77
2022-11-12T05:45:06.401Z,5.43
2022-11-12T05:47:34.646Z,5.53
2022-11-12T05:50:02.947Z,3.50
2022-11-12T05:52:31.346Z,6.13
2022-11-12T05:55:01.039Z,6.23
2022-11-12T05:57:29.417Z,4.20
2022-11-12T05:59:57.638Z,4.43
2022-11-12T06:02:25.941Z,4.03
2022-11-12T06:04:54.257Z,5.30
2022-11-12T06:07:22.564Z,4.47
2022-11-12T06:09:51.132Z,5.63
2022-11-12T06:12:20.748Z,4.07
2022-11-12T06:14:49.045Z,4.87
2022-11-12T06:17:17.544Z,4.53
2022-11-12T06:19:45.827Z,4.80
2022-11-12T06:22:14.200Z,3.00
2022-11-12T06:24:42.548Z,6.00
2022-11-12T06:27:10.782Z,7.53
2022-11-12T06:29:40.515Z,7.30
2022-11-12T06:32:08.735Z,6.00
2022-11-12T06:34:37.074Z,4.37
2022-11-12T06:37:05.313Z,3.30
2022-11-12T06:39:33.627Z,4.67
2022-11-12T06:42:02.192Z,9.00
2022-11-12T06:44:30.467Z,4.83
2022-11-12T06:47:00.236Z,8.33
2022-11-12T06:49:28.499Z,6.30
2022-11-12T06:51:56.859Z,4.77
2022-11-12T06:54:25.255Z,4.73
2022-11-12T06:56:53.676Z,7.57
2022-11-12T06:59:22.022Z,6.67
2022-11-12T07:01:50.457Z,4.93
2022-11-12T07:04:20.567Z,5.93
2022-11-12T07:06:49.019Z,5.77
2022-11-12T07:09:17.299Z,5.03
2022-11-12T07:11:45.723Z,5.40
2022-11-12T07:14:14.124Z,7.20
2022-11-12T07:16:42.487Z,7.53
2022-11-12T07:19:10.808Z,6.53
2022-11-12T07:21:40.462Z,6.90
2022-11-12T07:24:09.717Z,4.60
2022-11-12T07:26:40.745Z,7.40
2022-11-12T07:29:12.738Z,6.90
2022-11-12T07:31:46.546Z,7.60
2022-11-12T07:34:14.908Z,4.77
2022-11-12T07:36:44.577Z,6.00
2022-11-12T07:39:13.463Z,6.73
2022-11-12T07:41:41.672Z,6.80
2022-11-12T07:44:09.916Z,5.97
2022-11-12T07:46:38.524Z,5.27
2022-11-12T07:49:06.966Z,7.87
2022-11-12T07:51:35.305Z,4.93
2022-11-12T07:54:05.432Z,6.30
2022-11-12T07:56:33.849Z,7.20
2022-11-12T07:59:02.340Z,8.90
2022-11-12T08:01:32.927Z,5.27
2022-11-12T08:04:02.495Z,7.77
2022-11-12T08:06:31.991Z,4.97
2022-11-12T08:09:02.275Z,5.33
2022-11-12T08:11:32.240Z,6.57
2022-11-12T08:14:00.587Z,3.93
2022-11-12T08:16:28.892Z,6.17
2022-11-12T08:18:57.217Z,5.60
2022-11-12T08:21:26.286Z,5.57
2022-11-12T08:23:54.703Z,5.97
2022-11-12T08:26:23.030Z,6.40
2022-11-12T08:28:52.693Z,5.33
2022-11-12T08:31:22.931Z,8.02
2022-11-12T08:33:51.504Z,8.63
2022-11-12T08:36:19.988Z,6.70
2022-11-12T08:38:48.328Z,5.87
2022-11-12T08:41:17.781Z,9.13
2022-11-12T08:43:46.087Z,6.27
2022-11-12T08:46:15.710Z,7.67
2022-11-12T08:48:44.075Z,8.52
2022-11-12T08:51:12.346Z,8.47
2022-11-12T08:53:40.991Z,8.73
2022-11-12T08:56:09.251Z,10.40
2022-11-12T08:58:37.543Z,8.90
2022-11-12T09:01:07.635Z,9.50
2022-11-12T09:03:37.931Z,10.17
2022-11-12T09:06:07.218Z,9.83
2022-11-12T09:08:37.341Z,9.47
2022-11-12T09:11:05.999Z,13.00
2022-11-12T09:13:35.353Z,10.80
2022-11-12T09:16:05.272Z,10.67
2022-11-12T09:18:34.402Z,8.82
2022-11-12T09:21:06.647Z,10.38
2022-11-12T09:23:36.471Z,10.73
2022-11-12T09:26:05.012Z,8.88
2022-11-12T09:28:33.988Z,10.68
2022-11-12T09:31:03.206Z,11.23
2022-11-12T09:33:34.398Z,9.43
2022-11-12T09:36:04.970Z,13.43
2022-11-12T09:38:33.321Z,10.50
2022-11-12T09:41:25.076Z,11.73
2022-11-12T09:43:55.381Z,11.17
2022-11-12T09:46:36.831Z,8.97
2022-11-12T09:49:12.596Z,7.35
2022-11-12T09:51:47.880Z,16.70
2022-11-12T09:54:24.039Z,14.52
2022-11-12T09:56:53.583Z,12.57
2022-11-12T09:59:23.901Z,9.00
2022-11-12T10:01:59.854Z,10.70
2022-11-12T10:05:00.222Z,9.10
2022-11-12T10:07:42.385Z,10.17
2022-11-12T10:10:16.286Z,9.93
2022-11-12T10:13:00.411Z,14.00
2022-11-12T10:16:09.388Z,15.70
2022-11-12T10:18:52.218Z,7.90
2022-11-12T10:21:29.752Z,7.07
2022-11-12T10:24:01.369Z,5.30
2022-11-12T10:26:31.732Z,12.43
2022-11-12T10:29:08.791Z,7.67
2022-11-12T10:31:37.042Z,5.93
2022-11-12T10:34:17.775Z,6.97
2022-11-12T10:36:50.234Z,9.20
2022-11-12T10:39:37.990Z,8.33
2022-11-12T10:42:10.301Z,6.35
2022-11-12T10:44:43.376Z,5.38
2022-11-12T10:47:25.875Z,7.15
2022-11-12T10:50:16.567Z,5.47
2022-11-12T10:52:56.644Z,6.03
2022-11-12T10:55:29.006Z,11.93
2022-11-12T10:58:06.746Z,6.30
2022-11-12T11:00:35.466Z,10.35
2022-11-12T11:03:07.154Z,7.35
2022-11-12T11:05:37.848Z,4.38
2022-11-12T11:08:07.243Z,6.30
2022-11-12T11:10:38.469Z,5.70
2022-11-12T11:13:21.834Z,24.83
2022-11-12T11:16:01.107Z,37.78
2022-11-12T11:18:30.570Z,9.80
2022-11-12T11:21:07.692Z,6.70
2022-11-12T11:23:47.159Z,13.70
2022-11-12T11:26:31.022Z,8.55
2022-11-12T11:29:11.997Z,7.35
2022-11-12T11:31:47.262Z,8.35
2022-11-12T11:34:28.737Z,9.10
2022-11-12T11:37:04.947Z,6.90
2022-11-12T11:39:42.116Z,9.10
2022-11-12T11:42:29.264Z,4.95
2022-11-12T11:45:04.423Z,9.02
2022-11-12T11:47:59.808Z,9.20
2022-11-12T11:50:31.071Z,6.47
2022-11-12T11:53:14.722Z,9.98
2022-11-12T11:55:52.767Z,9.88
2022-11-12T11:58:40.135Z,11.38
2022-11-12T12:01:20.511Z,11.55
2022-11-12T12:04:08.199Z,7.72
2022-11-12T12:06:42.191Z,8.13
2022-11-12T12:09:24.310Z,8.30
2022-11-12T12:11:57.128Z,8.20
2022-11-12T12:14:41.920Z,8.07
2022-11-12T12:17:20.489Z,9.68
2022-11-12T12:20:00.512Z,7.30
2022-11-12T12:22:37.320Z,8.05
2022-11-12T12:25:13.752Z,7.93
2022-11-12T12:27:52.049Z,8.55
2022-11-12T12:30:23.686Z,15.43
2022-11-12T12:32:57.177Z,9.52
2022-11-12T12:35:30.837Z,11.77
2022-11-12T12:38:08.012Z,12.50
2022-11-12T12:40:40.738Z,8.10
2022-11-12T12:43:15.509Z,7.68
2022-11-12T12:45:46.969Z,10.43
2022-11-12T12:48:19.218Z,8.85
2022-11-12T12:50:48.808Z,6.60
2022-11-12T12:53:19.241Z,9.45
2022-11-12T12:55:49.532Z,8.48
2022-11-12T12:58:20.706Z,8.45
2022-11-12T13:00:52.514Z,9.02
2022-11-12T13:03:47.613Z,9.10
2022-11-12T13:06:23.010Z,7.13
2022-11-12T13:08:53.798Z,7.38
2022-11-12T13:12:07.926Z,9.40
2022-11-12T13:15:09.125Z,5.50
2022-11-12T13:17:47.787Z,7.60
2022-11-12T13:20:38.635Z,9.40
2022-11-12T13:23:13.092Z,6.50
2022-11-12T13:25:41.465Z,8.90
2022-11-12T13:28:14.357Z,9.17
2022-11-12T13:31:00.767Z,9.80
2022-11-12T13:33:33.992Z,11.75
2022-11-12T13:36:28.123Z,9.98
2022-11-12T13:39:12.308Z,9.77
2022-11-12T13:41:58.249Z,8.25
2022-11-12T13:44:27.991Z,7.78
2022-11-12T13:46:57.215Z,7.55
2022-11-12T13:49:28.376Z,8.80
2022-11-12T13:51:57.267Z,13.65
2022-11-12T13:54:34.239Z,8.88
2022-11-12T13:57:28.952Z,7.23
2022-11-12T14:00:23.964Z,28.20
2022-11-12T14:02:55.725Z,26.03
2022-11-12T14:05:27.881Z,11.40
2022-11-12T14:08:11.432Z,18.33
2022-11-12T14:10:47.423Z,13.18
2022-11-12T14:13:36.226Z,9.43
2022-11-12T14:16:18.739Z,7.68
2022-11-12T14:19:07.572Z,5.65
2022-11-12T14:21:37.707Z,9.57
2022-11-12T14:24:06.879Z,7.22
2022-11-12T14:26:36.970Z,8.80
2022-11-12T14:29:06.146Z,8.27
2022-11-12T14:31:34.679Z,8.83
2022-11-12T14:34:22.122Z,10.32
2022-11-12T14:36:55.959Z,9.15
2022-11-12T14:39:25.540Z,11.40
2022-11-12T14:41:54.367Z,8.25
2022-11-12T14:44:25.159Z,9.40
2022-11-12T14:46:55.317Z,6.33
2022-11-12T14:49:29.300Z,8.35
2022-11-12T14:52:07.431Z,9.87
2022-11-12T14:54:38.097Z,8.17
2022-11-12T14:57:06.766Z,9.40
2022-11-12T14:59:35.560Z,9.63
2022-11-12T15:02:30.177Z,9.38
2022-11-12T15:05:02.347Z,7.60
2022-11-12T15:07:33.889Z,7.47
2022-11-12T15:10:29.966Z,10.77
2022-11-12T15:13:04.480Z,12.17
2022-11-12T15:15:34.300Z,13.33
2022-11-12T15:18:05.531Z,10.90
2022-11-12T15:20:34.041Z,14.30
2022-11-12T15:23:03.938Z,10.07
2022-11-12T15:25:33.082Z,8.37
2022-11-12T15:28:15.424Z,12.00
2022-11-12T15:30:43.971Z,10.07
2022-11-12T15:33:19.376Z,9.37
2022-11-12T15:35:56.525Z,26.77
2022-11-12T15:38:31.745Z,20.20
2022-11-12T15:41:01.303Z,13.00
2022-11-12T15:43:33.337Z,11.30
2022-11-12T15:46:01.768Z,9.87
2022-11-12T15:48:30.322Z,10.17
2022-11-12T15:50:59.115Z,10.30
2022-11-12T15:53:30.653Z,11.07
2022-11-12T15:55:59.165Z,12.63
2022-11-12T15:58:33.387Z,15.13
2022-11-12T16:01:02.221Z,11.30
2022-11-12T16:03:31.468Z,11.37
2022-11-12T16:06:04.093Z,13.10
2022-11-12T16:08:38.299Z,10.67
2022-11-12T16:11:27.036Z,9.73
2022-11-12T16:13:55.404Z,10.93
2022-11-12T16:16:23.796Z,12.03
2022-11-12T16:18:52.185Z,13.00
2022-11-12T16:21:21.080Z,11.93
2022-11-12T16:23:50.928Z,13.17
2022-11-12T16:26:25.188Z,19.43
2022-11-12T16:28:53.832Z,16.17
2022-11-12T16:31:22.637Z,15.00
2022-11-12T16:33:50.912Z,10.30
2022-11-12T16:36:19.533Z,12.07
2022-11-12T16:38:48.351Z,15.73
2022-11-12T16:41:18.307Z,11.20
2022-11-12T16:43:46.681Z,12.93
2022-11-12T16:46:20.152Z,16.80
2022-11-12T16:48:48.727Z,11.63
2022-11-12T16:51:19.765Z,12.50
2022-11-12T16:53:48.683Z,10.60
2022-11-12T16:56:20.809Z,10.00
2022-11-12T16:58:49.933Z,10.43
2022-11-12T17:01:25.574Z,10.77
2022-11-12T17:03:55.585Z,17.13
2022-11-12T17:06:25.354Z,12.53
2022-11-12T17:08:55.863Z,22.27
2022-11-12T17:11:25.593Z,19.23
2022-11-12T17:13:59.179Z,15.77
2022-11-12T17:16:27.503Z,10.77
2022-11-12T17:18:56.302Z,16.13
2022-11-12T17:21:24.764Z,15.73
2022-11-12T17:23:53.187Z,14.07
2022-11-12T17:26:22.242Z,14.40
2022-11-12T17:28:58.567Z,22.77
2022-11-12T17:31:29.556Z,14.00
2022-11-12T17:33:57.875Z,19.33
2022-11-12T17:36:28.119Z,19.33
2022-11-12T17:38:57.065Z,12.47
2022-11-12T17:41:26.119Z,15.07
2022-11-12T17:43:57.494Z,17.67
2022-11-12T17:46:26.361Z,41.90
2022-11-12T17:48:55.481Z,16.67
2022-11-12T17:51:26.985Z,20.37
2022-11-12T17:53:55.768Z,16.47
2022-11-12T17:56:25.452Z,17.57
2022-11-12T17:58:54.401Z,18.97
2022-11-12T18:01:25.594Z,16.30
2022-11-12T18:03:55.813Z,18.50
2022-11-12T18:06:25.971Z,15.50
2022-11-12T18:08:56.059Z,20.27
2022-11-12T18:11:25.167Z,15.13
2022-11-12T18:13:53.619Z,18.60
2022-11-12T18:16:25.743Z,16.47
2022-11-12T18:18:55.889Z,19.23
2022-11-12T18:21:25.049Z,13.53
2022-11-12T18:23:53.364Z,17.77
2022-11-12T18:26:22.051Z,16.37
2022-11-12T18:28:52.705Z,16.20
2022-11-12T18:31:21.470Z,28.37
2022-11-12T18:33:51.398Z,20.23
2022-11-12T18:36:21.288Z,18.37
2022-11-12T18:38:50.843Z,16.27
2022-11-12T18:41:21.139Z,18.53
2022-11-12T18:43:49.526Z,21.63
2022-11-12T18:46:17.846Z,13.70
2022-11-12T18:48:47.414Z,16.63
2022-11-12T18:51:19.282Z,14.33
2022-11-12T18:53:48.050Z,18.10
2022-11-12T18:56:18.396Z,18.53
2022-11-12T18:58:47.617Z,15.67
2022-11-12T19:01:17.626Z,13.30
2022-11-12T19:03:46.081Z,15.77
2022-11-12T19:06:16.819Z,16.70
2022-11-12T19:08:45.363Z,17.80
2022-11-12T19:11:16.471Z,14.37
2022-11-12T19:13:44.787Z,15.90
2022-11-12T19:16:17.022Z,17.63
2022-11-12T19:18:46.387Z,14.00
2022-11-12T19:21:17.623Z,17.37
2022-11-12T19:23:51.323Z,16.40
2022-11-12T19:26:23.108Z,19.30
2022-11-12T19:28:51.519Z,17.50
2022-11-12T19:31:21.539Z,20.63
2022-11-12T19:33:50.612Z,22.10
2022-11-12T19:36:22.456Z,18.10
2022-11-12T19:38:56.168Z,18.07
2022-11-12T19:41:24.832Z,16.87
2022-11-12T19:43:53.734Z,19.43
2022-11-12T19:46:22.135Z,20.97
2022-11-12T19:48:51.216Z,18.60
2022-11-12T19:51:20.969Z,20.47
2022-11-12T19:53:49.365Z,19.30
2022-11-12T19:56:18.909Z,21.67
2022-11-12T19:58:48.283Z,21.13
2022-11-12T20:01:19.115Z,19.67
2022-11-12T20:03:47.906Z,18.90
2022-11-12T20:06:19.834Z,24.13
2022-11-12T20:08:49.667Z,22.57
2022-11-12T20:11:18.957Z,22.33
2022-11-12T20:13:47.888Z,20.00
2022-11-12T20:16:23.871Z,19.70
2022-11-12T20:18:55.564Z,21.37
2022-11-12T20:21:24.015Z,18.83
2022-11-12T20:23:53.702Z,22.93
2022-11-12T20:26:22.164Z,18.93
2022-11-12T20:28:50.456Z,22.10
2022-11-12T20:31:21.089Z,23.13
2022-11-12T20:33:50.326Z,17.57
2022-11-12T20:36:21.213Z,23.27
2022-11-12T20:38:50.956Z,19.23
2022-11-12T20:41:22.351Z,20.03
2022-11-12T20:43:54.320Z,18.17
2022-11-12T20:46:23.073Z,18.87
2022-11-12T20:48:51.634Z,17.57
2022-11-12T20:51:24.149Z,19.33
2022-11-12T20:54:01.749Z,20.23
2022-11-12T20:56:38.741Z,19.20
2022-11-12T20:59:07.211Z,20.33
2022-11-12T21:01:35.629Z,17.67
2022-11-12T21:04:04.328Z,16.37
2022-11-12T21:06:32.623Z,18.17
2022-11-12T21:09:01.299Z,21.60
2022-11-12T21:11:31.277Z,21.07
2022-11-12T21:14:01.264Z,24.87
2022-11-12T21:16:29.757Z,18.13
2022-11-12T21:19:01.539Z,18.03
2022-11-12T21:21:31.631Z,21.27
2022-11-12T21:24:06.823Z,20.30
2022-11-12T21:26:42.755Z,19.43
2022-11-12T21:29:12.748Z,20.47
2022-11-12T21:31:42.808Z,16.90
2022-11-12T21:34:11.809Z,19.67
2022-11-12T21:36:40.179Z,20.73
2022-11-12T21:39:10.288Z,15.87
2022-11-12T21:41:40.248Z,16.97
2022-11-12T21:44:08.960Z,20.80
2022-11-12T21:46:37.883Z,17.67
2022-11-12T21:49:06.268Z,19.67
2022-11-12T21:51:35.090Z,20.63
2022-11-12T21:54:05.371Z,18.20
2022-11-12T21:56:34.732Z,19.13
2022-11-12T21:59:04.796Z,22.80
2022-11-12T22:01:34.926Z,20.33
2022-11-12T22:04:07.365Z,18.10
2022-11-12T22:06:38.770Z,15.20
2022-11-12T22:09:07.708Z,16.43
2022-11-12T22:11:36.215Z,16.13
2022-11-12T22:14:06.220Z,18.80
2022-11-12T22:16:34.753Z,16.90
2022-11-12T22:19:03.131Z,20.43
2022-11-12T22:21:39.473Z,17.23
2022-11-12T22:24:09.302Z,15.80
2022-11-12T22:26:38.033Z,17.37
2022-11-12T22:29:07.863Z,17.80
2022-11-12T22:31:36.527Z,19.90
2022-11-12T22:34:04.928Z,19.73
2022-11-12T22:36:35.925Z,19.00
2022-11-12T22:39:08.625Z,15.27
2022-11-12T22:41:38.432Z,17.63
2022-11-12T22:44:08.229Z,18.90
2022-11-12T22:46:37.672Z,15.90
2022-11-12T22:49:06.492Z,15.60
2022-11-12T22:51:35.784Z,19.30
2022-11-12T22:54:06.343Z,17.17
2022-11-12T22:56:35.170Z,16.90
2022-11-12T22:59:05.006Z,17.23
2022-11-12T23:01:36.533Z,14.93
2022-11-12T23:04:07.874Z,18.23
2022-11-12T23:06:36.846Z,18.27
2022-11-12T23:09:05.673Z,14.90
2022-11-12T23:11:34.603Z,16.87
2022-11-12T23:14:03.070Z,17.83
2022-11-12T23:16:32.080Z,13.47
2022-11-12T23:19:01.986Z,14.60
2022-11-12T23:21:31.354Z,16.27
2022-11-12T23:24:00.373Z,16.27
2022-11-12T23:26:31.343Z,14.47
2022-11-12T23:28:59.964Z,13.67
2022-11-12T23:31:30.706Z,16.03
2022-11-12T23:34:01.840Z,14.53
2022-11-12T23:36:31.257Z,15.87
2022-11-12T23:39:00.941Z,15.27
2022-11-12T23:41:29.607Z,13.10
2022-11-12T23:43:59.137Z,14.77
2022-11-12T23:46:27.577Z,15.00
2022-11-12T23:48:55.954Z,13.50
2022-11-12T23:51:25.988Z,15.60
2022-11-12T23:53:54.334Z,15.83
2022-11-12T23:56:22.782Z,12.97
2022-11-12T23:58:54.467Z,13.17
